Time;durP1;ratioP1;P1;durP2;ratioP2;P2;SDS_P1;SDS_P2;PMS_P1;PMS_P2;Temp;Humidity;BMP_temperature;BMP_pressure;BME280_temperature;BME280_humidity;BME280_pressure;Samples;Min_cycle;Max_cycle;Signal;HPM_P1;HPM_P2
2022/12/18 00:02:17;;;;;;;;;9.00;9.00;;;;;-7.13;80.85;101128.44;5037587;28;9513;-60
2022/12/18 00:04:45;;;;;;;;;0.00;0.00;;;;;-7.18;80.52;101130.13;5037499;28;8841;-60
2022/12/18 00:07:14;;;;;;;;;3.50;3.50;;;;;-7.21;80.88;101127.47;5038539;28;8843;-60
2022/12/18 00:09:42;;;;;;;;;2.50;2.50;;;;;-7.26;80.76;101121.41;5037901;28;8954;-60
2022/12/18 00:12:09;;;;;;;;;7.50;7.50;;;;;-7.27;80.70;101124.81;5037653;28;8836;-60
2022/12/18 00:14:42;;;;;;;;;6.50;6.00;;;;;-7.27;80.95;101127.41;5038397;28;8806;-59
2022/12/18 00:17:10;;;;;;;;;6.00;6.00;;;;;-7.21;80.45;101124.91;5038234;28;9539;-60
2022/12/18 00:19:38;;;;;;;;;3.50;3.50;;;;;-7.18;80.98;101122.38;5038802;28;8951;-60
2022/12/18 00:22:07;;;;;;;;;6.00;6.00;;;;;-7.15;80.88;101118.91;5038518;28;8848;-60
2022/12/18 00:24:34;;;;;;;;;6.00;5.50;;;;;-7.11;81.02;101124.16;5038245;28;8825;-60
2022/12/18 00:27:02;;;;;;;;;3.00;3.00;;;;;-7.07;80.63;101125.91;5038551;28;8825;-61
2022/12/18 00:29:30;;;;;;;;;3.75;3.75;;;;;-7.01;80.30;101123.38;5038596;28;8832;-60
2022/12/18 00:32:00;;;;;;;;;4.00;4.00;;;;;-6.97;80.37;101119.94;5038227;28;8790;-58
2022/12/18 00:34:28;;;;;;;;;1.50;1.50;;;;;-6.93;80.39;101124.31;5037934;28;8852;-60
2022/12/18 00:36:56;;;;;;;;;3.75;3.75;;;;;-6.90;80.82;101128.66;5037623;28;8822;-60
2022/12/18 00:39:23;;;;;;;;;5.25;4.75;;;;;-6.83;80.43;101133.03;5037565;28;8833;-60
2022/12/18 00:44:39;;;;;;;;;4.00;4.00;;;;;-6.73;80.15;101134.84;5038016;28;8876;-60
2022/12/18 00:47:07;;;;;;;;;1.00;1.00;;;;;-6.74;80.47;101133.97;5038213;28;8968;-61
2022/12/18 00:49:35;;;;;;;;;3.00;3.00;;;;;-6.77;80.29;101131.34;5038196;28;9805;-60
2022/12/18 00:52:03;;;;;;;;;4.00;4.00;;;;;-6.79;80.33;101134.78;5037816;28;8932;-60
2022/12/18 00:54:31;;;;;;;;;3.25;3.25;;;;;-6.82;80.22;101138.19;5038154;28;8838;-59
2022/12/18 00:57:00;;;;;;;;;3.00;3.00;;;;;-6.83;80.28;101139.06;5038075;28;8840;-60
2022/12/18 00:59:27;;;;;;;;;6.25;5.00;;;;;-6.84;79.98;101145.09;5038224;28;8842;-60
2022/12/18 01:01:55;;;;;;;;;4.00;4.00;;;;;-6.84;80.21;101134.75;5037993;28;8845;-59
2022/12/18 01:04:24;;;;;;;;;3.25;2.50;;;;;-6.83;80.33;101139.06;5038142;28;8818;-60
2022/12/18 01:06:51;;;;;;;;;1.00;1.00;;;;;-6.81;80.64;101142.53;5037708;28;8968;-60
2022/12/18 01:09:19;;;;;;;;;2.50;2.50;;;;;-6.80;80.25;101133.06;5038034;28;8822;-60
2022/12/18 01:11:47;;;;;;;;;5.75;5.50;;;;;-6.82;80.35;101135.63;5037743;28;8826;-58
2022/12/18 01:14:15;;;;;;;;;2.50;2.50;;;;;-6.82;80.41;101134.78;5037617;28;8932;-58
2022/12/18 01:16:43;;;;;;;;;3.75;3.75;;;;;-6.83;80.03;101123.53;5037635;28;8842;-60
2022/12/18 01:19:11;;;;;;;;;5.25;4.00;;;;;-6.83;80.33;101126.13;5037875;28;8956;-60
2022/12/18 01:21:40;;;;;;;;;3.75;3.00;;;;;-6.81;80.19;101123.56;5037549;28;8873;-58
2022/12/18 01:24:08;;;;;;;;;3.75;3.75;;;;;-6.80;80.33;101128.75;5037328;28;8841;-60
2022/12/18 01:26:36;;;;;;;;;3.25;3.00;;;;;-6.81;80.47;101131.31;5037380;28;8837;-60
2022/12/18 01:29:03;;;;;;;;;1.00;1.00;;;;;-6.80;80.24;101139.09;5037257;28;8834;-58
2022/12/18 01:31:31;;;;;;;;;1.50;1.50;;;;;-6.82;80.30;101138.19;5036812;28;8820;-60
2022/12/18 01:34:00;;;;;;;;;3.00;3.00;;;;;-6.82;80.05;101147.72;5036789;28;8913;-60
2022/12/18 01:36:27;;;;;;;;;1.50;1.50;;;;;-6.81;80.30;101139.09;5037014;28;8828;-60
2022/12/18 01:38:55;;;;;;;;;5.00;5.00;;;;;-6.80;80.11;101138.22;5036683;28;8996;-59
2022/12/18 01:41:23;;;;;;;;;6.00;4.50;;;;;-6.80;80.28;101141.69;5036842;28;8828;-60
2022/12/18 01:43:51;;;;;;;;;1.00;1.00;;;;;-6.80;80.18;101133.94;5036852;28;8828;-59
2022/12/18 01:46:18;;;;;;;;;4.00;4.00;;;;;-6.79;80.22;101143.44;5036685;28;9502;-60
2022/12/18 01:48:46;;;;;;;;;1.25;1.25;;;;;-6.78;80.03;101145.16;5037245;28;8829;-59
2022/12/18 01:51:14;;;;;;;;;5.75;5.75;;;;;-6.82;79.98;101139.94;5036802;28;8829;-60
2022/12/18 01:53:42;;;;;;;;;1.00;1.00;;;;;-6.85;79.94;101139.91;5037046;28;8813;-58
2022/12/18 01:56:10;;;;;;;;;1.00;1.00;;;;;-6.87;80.43;101139.03;5037226;28;8858;-57
2022/12/18 01:58:38;;;;;;;;;2.50;2.50;;;;;-6.87;80.12;101131.25;5036860;28;8858;-59
2022/12/18 02:01:06;;;;;;;;;2.75;1.50;;;;;-6.88;80.06;101124.34;5036622;28;8839;-60
2022/12/18 02:03:34;;;;;;;;;4.50;3.25;;;;;-6.86;80.61;101117.47;5036226;28;8844;-60
2022/12/18 02:06:02;;;;;;;;;0.25;0.25;;;;;-6.84;80.11;101116.63;5036379;28;8860;-60
2022/12/18 02:08:30;;;;;;;;;3.50;3.50;;;;;-6.82;80.15;101120.09;5036270;28;8820;-59
2022/12/18 02:10:59;;;;;;;;;0.75;0.75;;;;;-6.80;80.02;101115.81;5036615;28;8886;-60
2022/12/18 02:13:27;;;;;;;;;3.75;3.75;;;;;-6.78;80.09;101127.03;5036404;28;8850;-60
2022/12/18 02:15:55;;;;;;;;;5.00;4.00;;;;;-6.80;80.07;101118.41;5036481;28;8926;-60
2022/12/18 02:18:23;;;;;;;;;2.50;1.50;;;;;-6.80;80.16;101122.69;5036551;28;9600;-61
2022/12/18 02:20:51;;;;;;;;;0.25;0.25;;;;;-6.83;80.20;101115.78;5036455;28;9653;-60
2022/12/18 02:23:19;;;;;;;;;4.50;4.50;;;;;-6.83;80.26;101127.88;5036026;28;9605;-58
2022/12/18 02:25:47;;;;;;;;;8.00;4.50;;;;;-6.84;80.10;101116.63;5036253;28;8825;-59
2022/12/18 02:28:14;;;;;;;;;1.00;1.00;;;;;-6.84;80.10;101110.59;5036545;28;9505;-58
2022/12/18 02:30:42;;;;;;;;;1.50;1.50;;;;;-6.85;80.38;101114.91;5036087;28;8830;-58
2022/12/18 02:33:11;;;;;;;;;1.00;1.00;;;;;-6.84;80.21;101110.59;5036115;28;8870;-60
2022/12/18 02:35:38;;;;;;;;;3.00;3.00;;;;;-6.82;80.42;101114.91;5036148;28;8826;-59
2022/12/18 02:38:06;;;;;;;;;1.50;1.50;;;;;-6.79;80.17;101119.25;5036059;28;8834;-59
2022/12/18 02:40:34;;;;;;;;;3.50;3.50;;;;;-6.78;80.15;101116.69;5036122;28;9650;-58
2022/12/18 02:43:02;;;;;;;;;1.00;1.00;;;;;-6.80;80.22;101108.06;5036117;28;8915;-58
2022/12/18 02:45:30;;;;;;;;;4.25;4.25;;;;;-6.79;80.07;101108.91;5036494;28;9582;-59
2022/12/18 02:47:58;;;;;;;;;1.50;1.50;;;;;-6.78;80.37;101110.63;5035479;28;8857;-59
2022/12/18 02:50:25;;;;;;;;;1.00;1.00;;;;;-6.78;80.04;101110.63;5035945;28;8842;-60
2022/12/18 02:52:53;;;;;;;;;0.75;0.75;;;;;-6.78;79.89;101110.63;5036166;28;8830;-61
2022/12/18 02:55:21;;;;;;;;;3.25;3.00;;;;;-6.79;79.74;101106.31;5035714;28;8818;-59
2022/12/18 02:57:49;;;;;;;;;0.25;0.25;;;;;-6.80;80.31;101107.16;5035798;28;8830;-57
2022/12/18 03:00:17;;;;;;;;;1.00;1.00;;;;;-6.82;80.14;101127.84;5035206;28;8911;-59
2022/12/18 03:02:46;;;;;;;;;2.00;2.00;;;;;-6.81;80.04;101115.78;5035319;28;8830;-60
2022/12/18 03:05:14;;;;;;;;;3.50;3.50;;;;;-6.81;79.93;101110.63;5035457;28;8822;-60
2022/12/18 03:07:41;;;;;;;;;3.00;3.00;;;;;-6.76;79.88;101114.97;5035367;28;8862;-60
2022/12/18 03:10:09;;;;;;;;;2.00;2.00;;;;;-6.71;80.36;101108.13;5035938;28;9599;-60
2022/12/18 03:12:37;;;;;;;;;4.00;4.00;;;;;-6.68;79.91;101113.31;5035366;28;8806;-59
2022/12/18 03:15:05;;;;;;;;;0.50;0.50;;;;;-6.67;79.84;101109.84;5035727;28;9561;-60
2022/12/18 03:17:33;;;;;;;;;1.50;1.50;;;;;-6.65;80.02;101108.16;5035444;28;9004;-60
2022/12/18 03:20:01;;;;;;;;;1.50;1.50;;;;;-6.63;79.96;101106.44;5035864;28;9527;-58
2022/12/18 03:22:29;;;;;;;;;6.00;5.00;;;;;-6.60;80.02;101103.88;5035555;28;8802;-61
2022/12/18 03:24:57;;;;;;;;;1.00;1.00;;;;;-6.58;79.62;101104.78;5036148;28;9504;-60
2022/12/18 03:27:25;;;;;;;;;0.00;0.00;;;;;-6.56;80.00;101100.47;5035479;28;8860;-58
2022/12/18 03:29:52;;;;;;;;;4.00;3.00;;;;;-6.53;79.75;101103.06;5035094;28;8846;-60
2022/12/18 03:32:20;;;;;;;;;0.75;0.00;;;;;-6.41;79.87;101097.97;5035237;28;8821;-59
2022/12/18 03:34:48;;;;;;;;;3.00;1.00;;;;;-6.26;79.75;101105.84;5035684;28;8825;-60
2022/12/18 03:37:18;;;;;;;;;0.00;0.00;;;;;-6.15;79.55;101105.91;5035789;28;9526;-60
2022/12/18 03:39:45;;;;;;;;;1.00;1.00;;;;;-6.08;79.63;101103.34;5035533;28;8829;-60
2022/12/18 03:42:13;;;;;;;;;1.00;1.00;;;;;-6.09;79.51;101092.97;5035128;28;8955;-60
2022/12/18 03:44:41;;;;;;;;;3.50;2.75;;;;;-6.12;79.41;101090.38;5035725;28;9528;-59
2022/12/18 03:47:09;;;;;;;;;4.00;4.00;;;;;-6.24;79.50;101091.19;5035501;28;8856;-60
2022/12/18 03:49:36;;;;;;;;;1.50;1.00;;;;;-6.39;79.26;101080.72;5035685;28;8963;-60
2022/12/18 03:52:04;;;;;;;;;3.75;3.75;;;;;-6.56;79.41;101082.34;5035257;28;8833;-60
2022/12/18 03:54:32;;;;;;;;;1.50;1.50;;;;;-6.69;79.85;101087.44;5035495;28;8821;-60
2022/12/18 03:56:59;;;;;;;;;3.00;3.00;;;;;-6.80;80.15;101087.34;5035161;28;8851;-60
2022/12/18 03:59:28;;;;;;;;;2.50;2.50;;;;;-6.90;80.00;101085.50;5034962;28;8879;-60
2022/12/18 04:01:57;;;;;;;;;3.50;3.50;;;;;-6.94;80.16;101091.53;5034690;28;9529;-61
2022/12/18 04:04:25;;;;;;;;;2.00;2.00;;;;;-6.97;80.22;101098.41;5035050;28;8840;-59
2022/12/18 04:06:53;;;;;;;;;3.00;3.00;;;;;-7.01;80.61;101112.16;5035497;28;8824;-60
2022/12/18 04:09:20;;;;;;;;;6.25;4.00;;;;;-7.04;80.14;101115.56;5035505;28;8824;-59
2022/12/18 04:11:48;;;;;;;;;3.00;3.00;;;;;-7.06;80.39;101114.69;5035249;28;8833;-60
2022/12/18 04:14:16;;;;;;;;;1.00;1.00;;;;;-7.08;80.15;101103.47;5037988;28;8954;-60
2022/12/18 04:16:45;;;;;;;;;3.00;2.50;;;;;-7.06;79.91;101101.75;5038686;28;8865;-60
2022/12/18 04:19:13;;;;;;;;;1.00;1.00;;;;;-6.99;80.26;101106.16;5038746;28;8906;-58
2022/12/18 04:21:41;;;;;;;;;0.75;0.75;;;;;-6.89;80.54;101107.94;5038651;28;9494;-61
2022/12/18 04:24:09;;;;;;;;;3.25;2.75;;;;;-6.84;80.14;101108.00;5038488;28;8863;-58
2022/12/18 04:26:38;;;;;;;;;1.50;1.50;;;;;-6.84;79.91;101095.94;5038739;28;8863;-59
2022/12/18 04:29:05;;;;;;;;;0.25;0.25;;;;;-6.85;79.86;101096.78;5038918;28;8848;-60
2022/12/18 04:31:33;;;;;;;;;0.75;0.75;;;;;-6.85;80.11;101098.50;5038512;28;8830;-60
2022/12/18 04:34:01;;;;;;;;;0.00;0.00;;;;;-6.83;80.60;101096.81;5038298;28;8814;-59
2022/12/18 04:36:29;;;;;;;;;3.50;3.00;;;;;-6.83;79.99;101097.66;5038202;28;8818;-60
2022/12/18 04:38:57;;;;;;;;;5.00;3.50;;;;;-6.80;80.04;101097.69;5038194;28;8848;-60
2022/12/18 04:41:24;;;;;;;;;1.00;1.00;;;;;-6.78;79.88;101095.97;5037649;28;9508;-59
2022/12/18 04:43:52;;;;;;;;;1.00;1.00;;;;;-6.73;79.97;101090.84;5038245;28;8822;-59
2022/12/18 04:46:20;;;;;;;;;2.25;2.25;;;;;-6.69;80.03;101096.03;5038073;28;8840;-60
2022/12/18 04:48:48;;;;;;;;;0.00;0.00;;;;;-6.65;79.83;101092.63;5038192;28;8826;-60
2022/12/18 04:51:16;;;;;;;;;0.00;0.00;;;;;-6.58;79.92;101086.66;5038123;28;8826;-60
2022/12/18 04:53:51;;;;;;;;;1.00;1.00;;;;;-6.56;79.78;101090.09;5038254;28;8850;-59
2022/12/18 04:56:18;;;;;;;;;1.00;1.00;;;;;-6.56;79.88;101091.81;5038148;28;8833;-59
2022/12/18 04:58:46;;;;;;;;;0.25;0.25;;;;;-6.57;79.75;101092.69;5038016;28;8848;-60
2022/12/18 05:01:14;;;;;;;;;0.25;0.25;;;;;-6.58;79.85;101093.53;5037242;28;8865;-60
2022/12/18 05:03:42;;;;;;;;;1.00;1.00;;;;;-6.62;79.54;101087.47;5037378;28;8830;-60
2022/12/18 05:06:11;;;;;;;;;1.00;1.00;;;;;-6.65;79.87;101095.22;5037241;28;8818;-60
2022/12/18 05:08:39;;;;;;;;;1.00;1.00;;;;;-6.66;79.95;101093.47;5037214;28;8856;-60
2022/12/18 05:11:07;;;;;;;;;1.00;1.00;;;;;-6.66;79.89;101087.44;5036982;28;8838;-60
2022/12/18 05:13:35;;;;;;;;;3.00;1.00;;;;;-6.69;79.56;101077.91;5037089;28;8847;-60
2022/12/18 05:16:03;;;;;;;;;0.00;0.00;;;;;-6.67;79.67;101083.97;5037259;28;8830;-60
2022/12/18 05:18:31;;;;;;;;;1.00;1.00;;;;;-6.69;79.99;101079.66;5037924;28;8856;-59
2022/12/18 05:20:59;;;;;;;;;3.00;3.00;;;;;-6.70;79.75;101077.91;5037299;28;8814;-59
2022/12/18 05:23:27;;;;;;;;;0.00;0.00;;;;;-6.70;80.09;101073.59;5037474;28;8822;-60
2022/12/18 05:25:54;;;;;;;;;0.25;0.00;;;;;-6.68;79.65;101063.28;5037597;28;8830;-60
2022/12/18 05:28:24;;;;;;;;;0.00;0.00;;;;;-6.65;79.83;101063.28;5037921;28;8818;-60
2022/12/18 05:30:52;;;;;;;;;2.00;2.00;;;;;-6.66;79.87;101061.56;5037455;28;8939;-60
2022/12/18 05:33:20;;;;;;;;;1.00;1.00;;;;;-6.66;79.89;101064.13;5037295;28;8840;-61
2022/12/18 05:35:48;;;;;;;;;2.00;2.00;;;;;-6.64;80.00;101052.94;5037158;28;8851;-60
2022/12/18 05:38:15;;;;;;;;;0.00;0.00;;;;;-6.62;79.98;101046.03;5037319;28;8849;-60
2022/12/18 05:40:44;;;;;;;;;1.00;1.00;;;;;-6.61;79.90;101049.50;5037231;28;8848;-59
2022/12/18 05:43:12;;;;;;;;;0.50;0.50;;;;;-6.60;79.70;101044.31;5037329;28;8833;-60
2022/12/18 05:45:47;;;;;;;;;1.00;1.00;;;;;-6.60;80.22;101052.09;5037382;28;9491;-61
2022/12/18 05:48:14;;;;;;;;;0.00;0.00;;;;;-6.61;79.67;101052.94;5037241;28;8923;-60
2022/12/18 05:50:42;;;;;;;;;1.00;1.00;;;;;-6.63;79.55;101049.50;5037228;28;8820;-59
2022/12/18 05:53:11;;;;;;;;;1.00;1.00;;;;;-6.64;79.59;101052.94;5036888;28;8831;-61
2022/12/18 05:55:39;;;;;;;;;0.00;0.00;;;;;-6.66;80.15;101052.03;5037125;28;8840;-60
2022/12/18 05:58:06;;;;;;;;;0.00;0.00;;;;;-6.65;79.95;101056.41;5036692;28;8840;-60
2022/12/18 06:00:34;;;;;;;;;1.00;1.00;;;;;-6.65;80.08;101060.69;5036824;28;8848;-60
2022/12/18 06:03:02;;;;;;;;;1.00;0.00;;;;;-6.64;79.81;101063.31;5036741;28;9497;-60
2022/12/18 06:05:30;;;;;;;;;0.00;0.00;;;;;-6.61;80.11;101073.66;5036927;28;8921;-59
2022/12/18 06:07:58;;;;;;;;;0.00;0.00;;;;;-6.60;79.45;101082.31;5036654;28;8824;-60
2022/12/18 06:10:26;;;;;;;;;1.00;1.00;;;;;-6.59;79.52;101084.03;5036599;28;8955;-58
2022/12/18 06:12:54;;;;;;;;;0.00;0.00;;;;;-6.54;79.96;101083.22;5036950;28;8831;-58
2022/12/18 06:15:22;;;;;;;;;1.00;0.00;;;;;-6.51;79.97;101080.63;5036352;28;8836;-59
2022/12/18 06:17:50;;;;;;;;;0.00;0.00;;;;;-6.46;79.93;101091.03;5036292;28;8868;-60
2022/12/18 06:20:18;;;;;;;;;0.00;0.00;;;;;-6.42;79.95;101091.06;5036293;28;8862;-60
2022/12/18 06:22:45;;;;;;;;;0.25;0.25;;;;;-6.41;79.38;101095.38;5036277;28;8829;-58
2022/12/18 06:25:13;;;;;;;;;1.00;1.00;;;;;-6.38;79.66;101107.50;5036299;28;8958;-60
2022/12/18 06:27:41;;;;;;;;;2.50;2.50;;;;;-6.37;79.70;101109.22;5036101;28;8836;-59
2022/12/18 06:30:09;;;;;;;;;4.25;3.50;;;;;-6.33;79.56;101105.78;5036393;28;8886;-58
2022/12/18 06:32:37;;;;;;;;;1.00;1.00;;;;;-6.31;79.16;101109.28;5035725;28;8857;-58
2022/12/18 06:35:05;;;;;;;;;1.00;1.00;;;;;-6.33;79.74;101108.38;5035733;28;8856;-60
2022/12/18 06:37:33;;;;;;;;;2.50;2.50;;;;;-6.33;79.50;101098.91;5036101;28;8838;-60
2022/12/18 06:40:01;;;;;;;;;0.75;0.75;;;;;-6.32;79.09;101095.44;5036172;28;8822;-59
2022/12/18 06:42:29;;;;;;;;;0.00;0.00;;;;;-6.33;79.72;101098.91;5036300;28;8826;-60
2022/12/18 06:44:57;;;;;;;;;0.00;0.00;;;;;-6.34;79.59;101096.28;5036111;28;8822;-58
2022/12/18 06:47:25;;;;;;;;;0.00;0.00;;;;;-6.36;79.55;101100.59;5035957;28;9024;-60
2022/12/18 06:49:52;;;;;;;;;1.00;1.00;;;;;-6.39;79.45;101105.78;5036161;28;8818;-60
2022/12/18 06:52:20;;;;;;;;;1.00;1.00;;;;;-6.43;79.82;101104.88;5036033;28;8841;-57
2022/12/18 06:54:48;;;;;;;;;0.00;0.00;;;;;-6.45;79.64;101096.22;5036167;28;8826;-60
2022/12/18 06:57:17;;;;;;;;;1.00;1.00;;;;;-6.40;79.75;101091.06;5036110;28;8837;-57
2022/12/18 06:59:45;;;;;;;;;0.75;0.75;;;;;-6.36;79.54;101095.41;5035674;28;8991;-59
2022/12/18 07:02:13;;;;;;;;;0.00;0.00;;;;;-6.34;79.61;101097.16;5035981;28;8850;-60
2022/12/18 07:04:41;;;;;;;;;2.50;2.50;;;;;-6.30;79.79;101095.47;5035996;28;8934;-60
2022/12/18 07:07:10;;;;;;;;;1.00;0.00;;;;;-6.24;79.37;101088.59;5035737;28;8830;-59
2022/12/18 07:09:38;;;;;;;;;0.75;0.75;;;;;-6.22;79.62;101084.28;5035688;28;9536;-60
2022/12/18 07:12:06;;;;;;;;;1.00;1.00;;;;;-6.18;79.33;101091.22;5035238;28;8942;-60
2022/12/18 07:14:34;;;;;;;;;0.00;0.00;;;;;-6.16;79.45;101084.31;5035306;28;8826;-60
2022/12/18 07:17:02;;;;;;;;;1.00;1.00;;;;;-6.14;79.19;101090.34;5035504;28;8846;-59
2022/12/18 07:19:30;;;;;;;;;1.00;1.00;;;;;-6.10;79.33;101091.25;5035134;28;8825;-60
2022/12/18 07:21:58;;;;;;;;;0.50;0.50;;;;;-6.10;78.94;101081.75;5035379;28;8846;-59
2022/12/18 07:24:26;;;;;;;;;0.00;0.00;;;;;-6.09;79.47;101086.06;5035282;28;8853;-59
2022/12/18 07:26:54;;;;;;;;;1.00;1.00;;;;;-6.12;79.56;101088.66;5035306;28;8807;-58
2022/12/18 07:29:22;;;;;;;;;1.50;1.00;;;;;-6.12;79.55;101072.25;5034940;28;8826;-60
2022/12/18 07:31:50;;;;;;;;;3.00;1.00;;;;;-6.13;79.34;101075.69;5035148;28;8902;-60
2022/12/18 07:34:18;;;;;;;;;1.00;1.00;;;;;-6.15;79.48;101078.25;5035536;28;8844;-59
2022/12/18 07:36:45;;;;;;;;;2.00;2.00;;;;;-6.16;79.37;101063.56;5035500;28;8836;-58
2022/12/18 07:39:13;;;;;;;;;1.00;1.00;;;;;-6.14;79.24;101064.44;5035196;28;8824;-60
2022/12/18 07:41:45;;;;;;;;;4.00;4.00;;;;;-6.11;79.62;101064.47;5035604;28;8926;-58
2022/12/18 07:44:14;;;;;;;;;0.00;0.00;;;;;-6.09;79.61;101070.53;5035435;28;8839;-60
2022/12/18 07:46:41;;;;;;;;;0.25;0.00;;;;;-6.08;79.65;101068.81;5036189;28;8840;-59
2022/12/18 07:49:09;;;;;;;;;1.00;1.00;;;;;-6.06;79.34;101069.69;5039240;28;8844;-58
2022/12/18 07:51:37;;;;;;;;;1.00;0.25;;;;;-6.04;79.39;101058.47;5039028;28;8852;-58
2022/12/18 07:54:05;;;;;;;;;0.50;0.50;;;;;-6.00;79.54;101062.78;5039010;28;8832;-60
2022/12/18 07:56:33;;;;;;;;;3.00;3.00;;;;;-5.93;78.78;101056.78;5038626;28;8817;-60
2022/12/18 07:59:01;;;;;;;;;2.00;2.00;;;;;-5.87;78.95;101051.63;5038688;28;8805;-59
2022/12/18 08:01:29;;;;;;;;;3.00;3.00;;;;;-5.77;79.34;101057.69;5038989;28;8840;-60
2022/12/18 08:03:57;;;;;;;;;3.75;3.50;;;;;-5.67;78.82;101064.63;5039059;28;8844;-60
2022/12/18 08:06:25;;;;;;;;;1.50;1.00;;;;;-5.59;79.40;101066.38;5038639;28;8852;-60
2022/12/18 08:08:53;;;;;;;;;4.00;4.00;;;;;-5.45;79.00;101069.88;5038593;28;8987;-60
2022/12/18 08:11:21;;;;;;;;;1.00;0.80;;;;;-5.30;78.88;101061.25;5038810;28;8847;-60
2022/12/18 08:13:49;;;;;;;;;0.80;0.80;;;;;-5.16;78.67;101057.78;5039057;28;8871;-58
2022/12/18 08:16:17;;;;;;;;;0.00;0.00;;;;;-5.02;78.40;101061.28;5038877;28;8852;-58
2022/12/18 08:18:45;;;;;;;;;0.00;0.00;;;;;-4.87;78.14;101050.03;5038575;28;8825;-58
2022/12/18 08:21:13;;;;;;;;;1.80;1.80;;;;;-4.73;78.13;101048.31;5038618;28;8848;-59
2022/12/18 08:23:41;;;;;;;;;1.00;1.00;;;;;-4.60;77.75;101048.28;5038347;28;8825;-58
2022/12/18 08:26:10;;;;;;;;;0.00;0.00;;;;;-4.47;77.64;101047.41;5038224;28;8849;-60
2022/12/18 08:28:38;;;;;;;;;1.00;1.00;;;;;-4.39;77.55;101035.28;5037902;28;8824;-60
2022/12/18 08:31:06;;;;;;;;;0.40;0.40;;;;;-4.30;77.48;101032.63;5038117;28;8843;-59
2022/12/18 08:33:34;;;;;;;;;0.00;0.00;;;;;-4.13;77.60;101020.44;5037703;28;8842;-60
2022/12/18 08:36:02;;;;;;;;;2.60;2.60;;;;;-3.94;77.35;101009.13;5037853;28;8834;-60
2022/12/18 08:38:30;;;;;;;;;0.00;0.00;;;;;-3.76;76.70;101011.63;5038003;28;8832;-60
2022/12/18 08:40:58;;;;;;;;;0.00;0.00;;;;;-3.58;76.75;101008.91;5038218;28;8828;-61
2022/12/18 08:46:15;;;;;;;;;1.40;1.40;;;;;-3.25;76.34;100980.91;5037716;28;8834;-58
2022/12/18 08:48:43;;;;;;;;;0.20;0.00;;;;;-3.07;76.54;100977.28;5037322;28;8847;-59
2022/12/18 08:51:11;;;;;;;;;1.00;1.00;;;;;-2.94;76.23;100973.72;5036937;28;8855;-60
2022/12/18 08:53:39;;;;;;;;;1.40;1.00;;;;;-2.83;75.74;100966.66;5036905;28;8842;-60
2022/12/18 08:56:08;;;;;;;;;0.80;0.80;;;;;-2.72;75.39;100960.47;5037036;28;8833;-60
2022/12/18 08:58:36;;;;;;;;;0.40;0.40;;;;;-2.64;75.74;100963.00;5036250;28;8842;-60
2022/12/18 09:01:04;;;;;;;;;0.00;0.00;;;;;-2.54;74.91;100962.00;5037167;28;9516;-60
2022/12/18 09:03:32;;;;;;;;;2.20;1.80;;;;;-2.50;75.44;100961.13;5037343;28;8824;-59
2022/12/18 09:06:00;;;;;;;;;0.20;0.20;;;;;-2.47;74.98;100955.84;5037429;28;8892;-60
2022/12/18 09:08:28;;;;;;;;;0.60;0.60;;;;;-2.41;75.44;100967.06;5036971;28;8845;-59
2022/12/18 09:10:57;;;;;;;;;1.00;0.80;;;;;-2.29;75.51;100966.09;5037206;28;9715;-60
2022/12/18 09:13:25;;;;;;;;;3.00;3.00;;;;;-2.20;74.95;100984.25;5037061;28;8835;-60
2022/12/18 09:15:52;;;;;;;;;2.60;2.60;;;;;-2.07;74.80;100973.63;5037498;28;8836;-61
2022/12/18 09:18:20;;;;;;;;;0.20;0.20;;;;;-1.90;74.47;100983.84;5037983;28;8856;-60
2022/12/18 09:20:50;;;;;;;;;3.20;2.80;;;;;-1.71;75.01;100975.75;5037042;28;8834;-59
2022/12/18 09:23:18;;;;;;;;;1.00;1.00;;;;;-1.42;74.54;100980.56;5036676;28;8846;-61
2022/12/18 09:25:46;;;;;;;;;0.00;0.00;;;;;-1.13;73.67;100968.75;5037196;28;8864;-60
2022/12/18 09:28:14;;;;;;;;;1.00;0.80;;;;;-0.86;73.52;100964.84;5037054;28;8904;-61
2022/12/18 09:30:42;;;;;;;;;1.00;1.00;;;;;-0.56;72.76;100943.34;5036551;28;8828;-61
2022/12/18 09:33:10;;;;;;;;;1.40;1.40;;;;;-0.32;72.17;100943.75;5036774;28;9525;-60
2022/12/18 09:35:39;;;;;;;;;1.00;0.20;;;;;-0.13;72.29;100931.16;5036469;28;8828;-61
2022/12/18 09:38:08;;;;;;;;;1.00;1.00;;;;;0.01;71.54;100937.84;5036715;28;9564;-60
2022/12/18 09:40:36;;;;;;;;;2.20;2.20;;;;;0.13;71.24;100942.81;5036637;28;8840;-60
2022/12/18 09:43:04;;;;;;;;;0.00;0.00;;;;;0.26;71.25;100947.75;5036595;28;9665;-61
2022/12/18 09:45:35;;;;;;;;;0.20;0.20;;;;;0.38;71.71;100949.25;5036469;28;8828;-61
2022/12/18 09:48:05;;;;;;;;;0.00;0.00;;;;;0.53;71.38;100943.66;5036122;28;8849;-60
2022/12/18 09:50:33;;;;;;;;;0.00;0.00;;;;;0.73;69.87;100926.56;5036083;28;8848;-60
2022/12/18 09:53:01;;;;;;;;;0.40;0.40;;;;;0.97;70.40;100927.69;5036265;28;8833;-60
2022/12/18 09:55:29;;;;;;;;;1.00;0.20;;;;;1.16;69.42;100919.31;5036207;28;8959;-60
2022/12/18 09:58:04;;;;;;;;;0.00;0.00;;;;;1.42;68.66;100916.88;5036481;28;8836;-60
2022/12/18 10:00:34;;;;;;;;;1.00;1.00;;;;;1.67;68.57;100914.44;5036259;28;8954;-60
2022/12/18 10:03:02;;;;;;;;;0.00;0.00;;;;;1.88;67.96;100917.31;5036219;28;8848;-61
2022/12/18 10:05:30;;;;;;;;;1.00;0.60;;;;;2.09;67.69;100916.69;5036475;28;9588;-60
2022/12/18 10:07:58;;;;;;;;;0.00;0.00;;;;;2.30;67.30;100918.66;5036450;28;8851;-60
2022/12/18 10:10:26;;;;;;;;;2.20;2.20;;;;;2.48;67.02;100918.09;5035390;28;9653;-61
2022/12/18 10:12:56;;;;;;;;;3.00;3.00;;;;;2.71;66.06;100928.72;5035993;28;8836;-61
2022/12/18 10:15:31;;;;;;;;;0.00;0.00;;;;;2.88;66.12;100922.94;5036231;28;8833;-60
2022/12/18 10:17:59;;;;;;;;;0.00;0.00;;;;;2.98;66.25;100919.97;5036322;28;8844;-61
2022/12/18 10:20:26;;;;;;;;;3.20;3.20;;;;;3.04;66.89;100909.19;5036008;28;8841;-61
2022/12/18 10:22:55;;;;;;;;;0.40;0.40;;;;;3.03;67.16;100902.22;5035641;28;8847;-60
2022/12/18 10:25:23;;;;;;;;;0.00;0.00;;;;;3.01;67.09;100893.53;5036377;28;9768;-58
2022/12/18 10:27:51;;;;;;;;;1.00;1.00;;;;;3.01;67.32;100880.38;5035728;28;8847;-59
2022/12/18 10:30:19;;;;;;;;;0.00;0.00;;;;;3.03;66.72;100875.91;5035769;28;8855;-61
2022/12/18 10:32:47;;;;;;;;;1.40;1.40;;;;;3.11;67.32;100879.16;5035836;28;8919;-60
2022/12/18 10:35:15;;;;;;;;;1.80;1.80;;;;;3.12;66.68;100869.50;5035676;28;8822;-61
2022/12/18 10:37:43;;;;;;;;;3.00;3.00;;;;;3.11;66.62;100881.78;5035345;28;8818;-60
2022/12/18 10:40:11;;;;;;;;;3.40;3.40;;;;;3.09;66.71;100886.25;5036116;28;8876;-58
2022/12/18 10:42:48;;;;;;;;;1.40;0.40;;;;;3.08;67.17;100878.38;5036005;28;8845;-61
2022/12/18 10:45:17;;;;;;;;;0.00;0.00;;;;;3.05;67.02;100862.72;5036076;28;8818;-60
2022/12/18 10:47:45;;;;;;;;;1.00;0.20;;;;;3.06;66.58;100848.66;5035938;28;9568;-60
2022/12/18 10:50:13;;;;;;;;;4.00;3.00;;;;;3.08;66.34;100838.94;5035575;28;8880;-61
2022/12/18 10:52:41;;;;;;;;;1.80;1.80;;;;;3.11;66.36;100826.53;5035621;28;8842;-60
2022/12/18 10:55:13;;;;;;;;;3.00;1.00;;;;;3.15;65.91;100830.78;5035535;28;8822;-59
2022/12/18 10:57:41;;;;;;;;;1.00;1.00;;;;;3.20;66.13;100820.09;5035314;28;8846;-59
2022/12/18 11:00:10;;;;;;;;;2.20;1.00;;;;;3.23;65.87;100826.09;5035554;28;9563;-61
2022/12/18 11:02:38;;;;;;;;;0.80;0.80;;;;;3.25;65.95;100823.44;5035486;28;8841;-60
2022/12/18 11:05:06;;;;;;;;;2.60;2.60;;;;;3.25;66.07;100823.44;5034844;28;8822;-61
2022/12/18 11:07:34;;;;;;;;;1.00;1.00;;;;;3.29;65.91;100828.53;5034326;28;8880;-60
2022/12/18 11:10:02;;;;;;;;;0.80;0.80;;;;;3.38;65.97;100820.28;5034130;28;8869;-59
2022/12/18 11:12:30;;;;;;;;;2.20;1.80;;;;;3.45;65.58;100819.16;5033977;28;8834;-62
2022/12/18 11:14:59;;;;;;;;;3.00;3.00;;;;;3.51;66.16;100821.56;5033708;28;8826;-60
2022/12/18 11:17:27;;;;;;;;;0.00;0.00;;;;;3.59;65.87;100811.59;5034098;28;8850;-61
2022/12/18 11:19:55;;;;;;;;;0.00;0.00;;;;;3.64;65.58;100807.00;5034281;28;8939;-60
2022/12/18 11:22:24;;;;;;;;;0.00;0.00;;;;;3.66;66.12;100805.19;5036564;28;8958;-62
2022/12/18 11:24:52;;;;;;;;;1.00;0.00;;;;;3.65;65.46;100807.88;5038819;28;8915;-60
2022/12/18 11:27:40;;;;;;;;;0.60;0.60;;;;;3.64;65.99;100800.91;5038421;28;8988;-60
2022/12/18 11:30:08;;;;;;;;;0.00;0.00;;;;;3.66;66.23;100802.56;5037833;28;8848;-62
2022/12/18 11:32:37;;;;;;;;;0.80;0.80;;;;;3.69;66.05;100802.44;5018769;28;8838;-62
2022/12/18 11:35:05;;;;;;;;;0.00;0.00;;;;;3.68;66.28;100782.28;5034938;28;8831;-59
2022/12/18 11:37:33;;;;;;;;;1.80;1.80;;;;;3.66;65.04;100780.63;5038182;28;9492;-62
2022/12/18 11:40:01;;;;;;;;;1.00;1.00;;;;;3.67;65.90;100782.34;5038340;28;8929;-59
2022/12/18 11:42:29;;;;;;;;;1.00;0.00;;;;;3.67;65.32;100773.53;5038158;28;8851;-60
2022/12/18 11:44:58;;;;;;;;;0.00;0.00;;;;;3.66;65.78;100778.88;5038596;28;8844;-59